createdAt,value
2019-02-19T00:01:10.639Z,5.53
2019-02-19T00:03:39.569Z,5.33
2019-02-19T00:06:08.400Z,6.58
2019-02-19T00:08:37.395Z,5.55
2019-02-19T00:11:06.428Z,6.00
2019-02-19T00:13:35.352Z,5.47
2019-02-19T00:16:04.366Z,5.22
2019-02-19T00:18:33.293Z,5.60
2019-02-19T00:21:02.199Z,5.62
2019-02-19T00:23:31.036Z,5.58
2019-02-19T00:25:59.949Z,4.87
2019-02-19T00:28:28.772Z,5.17
2019-02-19T00:30:57.689Z,5.00
2019-02-19T00:33:26.593Z,5.35
2019-02-19T00:35:55.532Z,5.00
2019-02-19T00:38:24.558Z,5.45
2019-02-19T00:40:53.384Z,5.10
2019-02-19T00:43:30.853Z,4.70
2019-02-19T00:45:59.775Z,4.25
2019-02-19T00:48:28.671Z,3.98
2019-02-19T00:50:57.595Z,3.92
2019-02-19T00:53:26.499Z,4.20
2019-02-19T00:55:55.411Z,3.62
2019-02-19T00:58:24.326Z,3.75
2019-02-19T01:00:53.324Z,3.37
2019-02-19T01:03:23.479Z,3.52
2019-02-19T01:05:52.495Z,3.52
2019-02-19T01:08:21.459Z,2.90
2019-02-19T01:10:50.397Z,3.30
2019-02-19T01:13:19.445Z,3.37
2019-02-19T01:15:48.433Z,3.47
2019-02-19T01:18:17.381Z,3.42
2019-02-19T01:20:46.319Z,3.12
2019-02-19T01:23:15.263Z,2.83
2019-02-19T01:25:44.164Z,3.37
2019-02-19T01:28:13.030Z,2.87
2019-02-19T01:30:41.906Z,3.20
2019-02-19T01:33:10.792Z,3.25
2019-02-19T01:35:39.616Z,3.77
2019-02-19T01:38:08.555Z,4.12
2019-02-19T01:40:37.492Z,3.60
2019-02-19T01:43:06.401Z,3.77
2019-02-19T01:45:35.302Z,4.10
2019-02-19T01:48:04.418Z,4.85
2019-02-19T01:50:33.508Z,5.15
2019-02-19T01:53:02.346Z,4.72
2019-02-19T01:55:31.258Z,5.05
2019-02-19T01:58:00.166Z,5.28
2019-02-19T02:00:29.176Z,5.25
2019-02-19T02:02:58.002Z,5.15
2019-02-19T02:05:26.932Z,5.33
2019-02-19T02:07:55.751Z,5.10
2019-02-19T02:10:24.581Z,5.05
2019-02-19T02:12:53.427Z,6.05
2019-02-19T02:15:22.415Z,6.05
2019-02-19T02:17:51.277Z,5.15
2019-02-19T02:20:20.178Z,5.83
2019-02-19T02:22:49.004Z,4.95
2019-02-19T02:25:17.953Z,6.00
2019-02-19T02:27:46.792Z,5.10
2019-02-19T02:30:15.739Z,5.35
2019-02-19T02:32:44.639Z,4.47
2019-02-19T02:35:13.558Z,4.75
2019-02-19T02:37:42.403Z,4.60
2019-02-19T02:40:11.333Z,4.55
2019-02-19T02:42:40.307Z,4.45
2019-02-19T02:45:09.272Z,3.55
2019-02-19T02:47:38.200Z,4.35
2019-02-19T02:50:07.113Z,3.80
2019-02-19T02:52:35.978Z,3.12
2019-02-19T02:55:05.114Z,3.02
2019-02-19T02:57:34.019Z,3.20
2019-02-19T03:00:02.971Z,3.62
2019-02-19T03:02:31.881Z,3.08
2019-02-19T03:05:00.817Z,2.70
2019-02-19T03:07:38.942Z,2.22
2019-02-19T03:10:07.937Z,2.90
2019-02-19T03:12:36.891Z,2.92
2019-02-19T03:15:06.263Z,2.72
2019-02-19T03:17:36.662Z,2.85
2019-02-19T03:20:05.979Z,3.80
2019-02-19T03:22:34.903Z,3.22
2019-02-19T03:25:03.965Z,2.27
2019-02-19T03:27:32.853Z,2.27
2019-02-19T03:30:01.687Z,3.10
2019-02-19T03:32:30.512Z,2.83
2019-02-19T03:34:59.517Z,2.20
2019-02-19T03:37:28.338Z,2.72
2019-02-19T03:39:57.184Z,2.20
2019-02-19T03:42:26.023Z,2.27
2019-02-19T03:44:54.863Z,2.33
2019-02-19T03:47:23.878Z,2.17
2019-02-19T03:49:52.799Z,3.02
2019-02-19T03:52:21.818Z,2.30
2019-02-19T03:54:50.797Z,3.00
2019-02-19T03:57:19.793Z,2.35
2019-02-19T03:59:48.776Z,2.33
2019-02-19T04:02:17.811Z,2.67
2019-02-19T04:04:46.791Z,2.40
2019-02-19T04:07:15.718Z,2.58
2019-02-19T04:09:44.621Z,2.70
2019-02-19T04:12:13.545Z,2.30
2019-02-19T04:14:42.453Z,2.52
2019-02-19T04:17:11.439Z,2.87
2019-02-19T04:19:40.383Z,2.67
2019-02-19T04:22:09.237Z,2.70
2019-02-19T04:24:38.154Z,2.52
2019-02-19T04:27:06.977Z,2.47
2019-02-19T04:29:35.839Z,2.85
2019-02-19T04:32:04.810Z,2.77
2019-02-19T04:34:33.717Z,2.77
2019-02-19T04:37:02.663Z,2.52
2019-02-19T04:39:31.525Z,2.60
2019-02-19T04:42:00.344Z,2.72
2019-02-19T04:44:29.171Z,2.22
2019-02-19T04:46:58.026Z,2.27
2019-02-19T04:49:26.945Z,2.45
2019-02-19T04:51:55.784Z,2.58
2019-02-19T04:54:24.625Z,2.65
2019-02-19T04:56:53.524Z,2.37
2019-02-19T04:59:22.414Z,1.95
2019-02-19T05:01:51.411Z,2.83
2019-02-19T05:04:20.373Z,3.10
2019-02-19T05:06:49.312Z,3.12
2019-02-19T05:09:18.323Z,2.70
2019-02-19T05:11:47.247Z,2.75
2019-02-19T05:14:16.183Z,2.37
2019-02-19T05:16:45.152Z,2.10
2019-02-19T05:19:13.979Z,3.15
2019-02-19T05:21:42.884Z,2.55
2019-02-19T05:24:11.701Z,2.58
2019-02-19T05:26:40.593Z,2.50
2019-02-19T05:29:09.465Z,2.80
2019-02-19T05:31:38.363Z,2.75
2019-02-19T05:34:07.211Z,3.45
2019-02-19T05:36:36.151Z,3.47
2019-02-19T05:39:05.776Z,2.33
2019-02-19T05:41:34.800Z,2.70
2019-02-19T05:44:03.776Z,3.15
2019-02-19T05:46:32.737Z,2.95
2019-02-19T05:49:01.593Z,3.42
2019-02-19T05:51:30.502Z,2.20
2019-02-19T05:53:59.365Z,3.30
2019-02-19T05:56:28.185Z,2.55
2019-02-19T05:58:57.071Z,2.10
2019-02-19T06:01:25.907Z,2.45
2019-02-19T06:03:54.867Z,2.55
2019-02-19T06:06:23.827Z,2.83
2019-02-19T06:08:52.744Z,2.30
2019-02-19T06:11:21.656Z,2.67
2019-02-19T06:13:50.514Z,2.70
2019-02-19T06:16:19.452Z,2.72
2019-02-19T06:18:48.536Z,3.05
2019-02-19T06:21:17.518Z,2.70
2019-02-19T06:23:46.481Z,2.20
2019-02-19T06:26:15.377Z,2.80
2019-02-19T06:28:44.307Z,2.50
2019-02-19T06:31:14.869Z,2.17
2019-02-19T06:33:43.965Z,2.60
2019-02-19T06:36:14.319Z,2.80
2019-02-19T06:38:43.345Z,2.85
2019-02-19T06:41:14.834Z,2.80
2019-02-19T06:43:43.738Z,3.85
2019-02-19T06:46:12.937Z,3.40
2019-02-19T06:48:41.894Z,3.60
2019-02-19T06:51:10.816Z,3.52
2019-02-19T06:53:39.796Z,3.08
2019-02-19T06:56:08.727Z,3.35
2019-02-19T06:58:37.722Z,3.67
2019-02-19T07:01:11.968Z,3.80
2019-02-19T07:03:59.226Z,4.35
2019-02-19T07:06:28.233Z,4.20
2019-02-19T07:08:57.121Z,5.53
2019-02-19T07:11:26.047Z,5.67
2019-02-19T07:13:54.925Z,5.58
2019-02-19T07:16:24.126Z,5.62
2019-02-19T07:18:53.019Z,5.95
2019-02-19T07:21:22.044Z,6.58
2019-02-19T07:23:50.895Z,6.95
2019-02-19T07:26:19.974Z,8.03
2019-02-19T07:28:48.881Z,8.73
2019-02-19T07:31:17.906Z,8.35
2019-02-19T07:33:49.823Z,9.20
2019-02-19T07:36:18.943Z,10.30
2019-02-19T07:38:50.042Z,9.65
2019-02-19T07:41:18.986Z,9.80
2019-02-19T07:43:47.940Z,10.08
2019-02-19T07:46:17.047Z,12.37
2019-02-19T07:48:46.182Z,11.43
2019-02-19T07:51:15.184Z,10.98
2019-02-19T07:53:44.228Z,12.37
2019-02-19T07:56:13.172Z,12.60
2019-02-19T07:58:42.175Z,13.05
2019-02-19T08:01:11.172Z,14.07
2019-02-19T08:03:42.833Z,13.75
2019-02-19T08:06:11.775Z,13.72
2019-02-19T08:08:41.214Z,13.90
2019-02-19T08:11:10.210Z,12.05
2019-02-19T08:13:43.209Z,14.60
2019-02-19T08:16:14.122Z,13.90
2019-02-19T08:18:45.933Z,13.98
2019-02-19T08:21:16.435Z,12.20
2019-02-19T08:23:47.356Z,13.68
2019-02-19T08:26:21.401Z,12.68
2019-02-19T08:28:50.425Z,13.65
2019-02-19T08:31:19.409Z,12.07
2019-02-19T08:33:48.504Z,12.35
2019-02-19T08:36:17.502Z,11.73
2019-02-19T08:38:46.380Z,11.33
2019-02-19T08:41:15.304Z,10.15
2019-02-19T08:43:44.245Z,10.30
2019-02-19T08:46:13.243Z,9.18
2019-02-19T08:48:42.191Z,9.73
2019-02-19T08:51:11.194Z,9.60
2019-02-19T08:53:40.117Z,7.72
2019-02-19T08:56:09.087Z,7.55
2019-02-19T08:58:38.025Z,7.62
2019-02-19T09:01:06.928Z,6.50
2019-02-19T09:03:36.034Z,6.87
2019-02-19T09:06:04.995Z,6.00
2019-02-19T09:08:34.408Z,5.92
2019-02-19T09:11:03.557Z,6.58
2019-02-19T09:13:32.730Z,6.50
2019-02-19T09:16:01.754Z,6.45
2019-02-19T09:18:30.624Z,6.65
2019-02-19T09:20:59.529Z,6.45
2019-02-19T09:23:28.441Z,5.55
2019-02-19T09:25:57.331Z,6.37
2019-02-19T09:28:26.340Z,6.28
2019-02-19T09:30:56.090Z,5.35
2019-02-19T09:33:25.056Z,5.17
2019-02-19T09:35:53.979Z,5.80
2019-02-19T09:38:22.835Z,6.08
2019-02-19T09:40:51.784Z,6.05
2019-02-19T09:43:20.789Z,4.95
2019-02-19T09:45:49.714Z,5.58
2019-02-19T09:48:18.553Z,5.30
2019-02-19T09:50:47.493Z,4.97
2019-02-19T09:53:16.413Z,5.03
2019-02-19T09:55:45.383Z,4.65
2019-02-19T09:58:14.257Z,4.25
2019-02-19T10:00:43.247Z,4.70
2019-02-19T10:03:12.278Z,4.65
2019-02-19T10:05:41.105Z,4.80
2019-02-19T10:08:09.941Z,4.12
2019-02-19T10:10:38.856Z,4.10
2019-02-19T10:13:07.781Z,4.30
2019-02-19T10:15:36.700Z,3.90
2019-02-19T10:18:10.293Z,5.10
2019-02-19T10:20:36.339Z,3.87
2019-02-19T10:23:05.240Z,3.77
2019-02-19T10:25:34.153Z,3.90
2019-02-19T10:28:03.092Z,5.05
2019-02-19T10:30:32.162Z,4.58
2019-02-19T10:33:01.213Z,3.85
2019-02-19T10:35:30.154Z,3.85
2019-02-19T10:37:59.113Z,3.95
2019-02-19T10:40:28.180Z,4.30
2019-02-19T10:42:57.219Z,3.50
2019-02-19T10:45:26.225Z,4.45
2019-02-19T10:47:55.252Z,3.33
2019-02-19T10:50:24.303Z,3.95
2019-02-19T10:52:53.326Z,3.20
2019-02-19T10:55:22.250Z,2.77
2019-02-19T10:57:51.178Z,2.72
2019-02-19T11:00:20.474Z,3.67
2019-02-19T11:02:49.508Z,4.35
2019-02-19T11:05:18.521Z,3.50
2019-02-19T11:07:47.544Z,4.00
2019-02-19T11:10:16.541Z,3.47
2019-02-19T11:12:45.547Z,3.10
2019-02-19T11:15:14.551Z,3.40
2019-02-19T11:17:43.660Z,3.75
2019-02-19T11:20:12.890Z,2.58
2019-02-19T11:22:41.980Z,3.58
2019-02-19T11:25:11.806Z,3.02
2019-02-19T11:27:40.865Z,3.00
2019-02-19T11:30:12.211Z,3.33
2019-02-19T11:32:41.143Z,3.02
2019-02-19T11:35:10.102Z,3.60
2019-02-19T11:37:39.013Z,3.92
2019-02-19T11:40:09.452Z,4.47
2019-02-19T11:42:38.331Z,3.67
2019-02-19T11:45:09.468Z,2.70
2019-02-19T11:47:38.401Z,3.05
2019-02-19T11:50:10.664Z,2.47
2019-02-19T11:52:42.099Z,2.85
2019-02-19T11:55:15.853Z,2.80
2019-02-19T11:57:45.882Z,2.52
2019-02-19T12:00:19.179Z,3.17
2019-02-19T12:02:48.203Z,3.30
2019-02-19T12:05:19.469Z,2.35
2019-02-19T12:07:50.030Z,3.37
2019-02-19T12:10:21.599Z,3.12
2019-02-19T12:12:50.721Z,2.72
2019-02-19T12:15:20.236Z,2.90
2019-02-19T12:17:49.292Z,3.15
2019-02-19T12:20:18.315Z,2.80
2019-02-19T12:22:47.336Z,2.98
2019-02-19T12:25:16.328Z,3.42
2019-02-19T12:27:45.320Z,3.22
2019-02-19T12:30:14.547Z,2.83
2019-02-19T12:32:43.560Z,2.80
2019-02-19T12:35:12.563Z,3.00
2019-02-19T12:37:41.686Z,2.70
2019-02-19T12:40:10.901Z,2.58
2019-02-19T12:42:39.913Z,2.52
2019-02-19T12:45:09.831Z,3.83
2019-02-19T12:47:38.841Z,3.08
2019-02-19T12:50:09.469Z,3.25
2019-02-19T12:52:38.382Z,3.02
2019-02-19T12:55:07.922Z,3.20
2019-02-19T12:57:36.948Z,2.92
2019-02-19T13:00:07.014Z,3.40
2019-02-19T13:02:38.385Z,3.08
2019-02-19T13:05:08.780Z,2.83
2019-02-19T13:07:37.699Z,2.90
2019-02-19T13:10:07.100Z,3.08
2019-02-19T13:12:36.082Z,2.83
2019-02-19T13:15:05.718Z,2.67
2019-02-19T13:17:34.678Z,2.77
2019-02-19T13:20:03.935Z,2.83
2019-02-19T13:22:32.946Z,2.70
2019-02-19T13:25:01.912Z,3.00
2019-02-19T13:27:30.836Z,2.85
2019-02-19T13:29:59.837Z,2.65
2019-02-19T13:32:28.838Z,2.95
2019-02-19T13:34:57.769Z,2.83
2019-02-19T13:37:29.759Z,2.62
2019-02-19T13:40:01.218Z,3.05
2019-02-19T13:42:30.311Z,3.00
2019-02-19T13:44:59.331Z,2.58
2019-02-19T13:47:29.952Z,2.50
2019-02-19T13:49:59.009Z,2.60
2019-02-19T13:52:48.307Z,2.25
2019-02-19T13:55:20.804Z,3.05
2019-02-19T13:57:49.774Z,3.10
2019-02-19T14:00:23.508Z,2.55
2019-02-19T14:02:52.478Z,2.50
2019-02-19T14:05:21.478Z,2.58
2019-02-19T14:07:50.365Z,1.82
2019-02-19T14:10:19.263Z,1.98
2019-02-19T14:12:48.246Z,2.35
2019-02-19T14:15:25.568Z,2.67
2019-02-19T14:17:54.492Z,2.15
2019-02-19T14:20:41.149Z,2.00
2019-02-19T14:23:27.625Z,2.52
2019-02-19T14:26:15.658Z,2.17
2019-02-19T14:28:58.820Z,2.72
2019-02-19T14:31:49.807Z,1.90
2019-02-19T14:34:36.113Z,1.90
2019-02-19T14:37:29.892Z,2.50
2019-02-19T14:40:23.968Z,1.75
2019-02-19T14:43:16.341Z,1.82
2019-02-19T14:46:19.364Z,1.90
2019-02-19T14:49:07.380Z,1.35
2019-02-19T14:52:01.290Z,1.90
2019-02-19T14:54:44.748Z,1.30
2019-02-19T14:57:41.587Z,2.20
2019-02-19T15:00:38.588Z,1.70
2019-02-19T15:03:27.119Z,2.02
2019-02-19T15:06:18.683Z,2.75
2019-02-19T15:09:08.202Z,2.42
2019-02-19T15:11:53.821Z,1.90
2019-02-19T15:14:35.915Z,2.65
2019-02-19T15:17:26.965Z,2.52
2019-02-19T15:20:13.668Z,2.05
2019-02-19T15:23:04.195Z,2.62
2019-02-19T15:25:51.623Z,2.20
2019-02-19T15:28:38.107Z,2.25
2019-02-19T15:31:32.515Z,3.17
2019-02-19T15:34:38.294Z,2.37
2019-02-19T15:37:24.223Z,2.95
2019-02-19T15:40:18.534Z,2.83
2019-02-19T15:43:13.130Z,3.00
2019-02-19T15:45:54.601Z,2.77
2019-02-19T15:48:58.357Z,2.60
2019-02-19T15:52:09.272Z,2.75
2019-02-19T15:55:00.559Z,2.37
2019-02-19T15:57:38.678Z,2.55
2019-02-19T16:00:26.283Z,2.80
2019-02-19T16:03:13.182Z,2.52
2019-02-19T16:06:03.741Z,2.75
2019-02-19T16:08:39.386Z,2.77
2019-02-19T16:11:26.092Z,3.02
2019-02-19T16:14:26.016Z,3.58
2019-02-19T16:17:17.026Z,3.27
2019-02-19T16:20:09.475Z,3.30
2019-02-19T16:22:48.359Z,2.98
2019-02-19T16:25:34.900Z,3.47
2019-02-19T16:28:40.938Z,2.50
2019-02-19T16:31:31.557Z,2.90
2019-02-19T16:34:13.874Z,2.98
2019-02-19T16:36:56.826Z,3.60
2019-02-19T16:39:44.939Z,4.30
2019-02-19T16:42:44.711Z,3.27
2019-02-19T16:45:39.028Z,3.00
2019-02-19T16:48:25.463Z,3.08
2019-02-19T16:51:13.460Z,3.02
2019-02-19T16:53:53.157Z,3.90
2019-02-19T16:56:43.462Z,2.77
2019-02-19T16:59:34.129Z,3.20
2019-02-19T17:02:10.969Z,3.72
2019-02-19T17:04:58.926Z,2.80
2019-02-19T17:07:34.092Z,3.20
2019-02-19T17:10:15.329Z,2.75
2019-02-19T17:13:03.373Z,2.62
2019-02-19T17:15:57.440Z,2.95
2019-02-19T17:18:32.259Z,2.67
2019-02-19T17:21:23.855Z,2.77
2019-02-19T17:24:17.560Z,2.77
2019-02-19T17:27:03.915Z,2.85
2019-02-19T17:29:38.195Z,2.75
2019-02-19T17:32:15.724Z,2.92
2019-02-19T17:34:57.152Z,2.80
2019-02-19T17:37:56.984Z,2.85
2019-02-19T17:40:47.907Z,3.40
2019-02-19T17:43:22.268Z,3.27
2019-02-19T17:45:57.497Z,2.70
2019-02-19T17:48:48.356Z,2.52
2019-02-19T17:51:33.172Z,3.05
2019-02-19T17:54:27.245Z,3.70
2019-02-19T17:57:15.302Z,3.33
2019-02-19T18:00:02.125Z,2.72
2019-02-19T18:02:44.856Z,2.67
2019-02-19T18:05:28.434Z,2.87
2019-02-19T18:08:13.287Z,3.67
2019-02-19T18:10:51.266Z,2.27
2019-02-19T18:13:30.488Z,2.67
2019-02-19T18:16:24.237Z,3.55
2019-02-19T18:18:53.588Z,3.67
2019-02-19T18:21:24.002Z,4.40
2019-02-19T18:23:52.996Z,3.62
2019-02-19T18:26:21.972Z,4.42
2019-02-19T18:28:51.064Z,3.33
2019-02-19T18:31:20.018Z,3.45
2019-02-19T18:33:49.201Z,4.28
2019-02-19T18:36:18.321Z,3.25
2019-02-19T18:38:47.467Z,3.60
2019-02-19T18:41:16.691Z,3.52
2019-02-19T18:43:45.697Z,3.45
2019-02-19T18:46:14.528Z,2.98
2019-02-19T18:48:43.364Z,2.72
2019-02-19T18:51:14.923Z,2.87
2019-02-19T18:53:43.769Z,3.45
2019-02-19T18:56:12.799Z,3.60
2019-02-19T18:58:41.724Z,3.02
2019-02-19T19:01:11.998Z,2.50
2019-02-19T19:03:40.899Z,2.95
2019-02-19T19:06:09.872Z,3.20
2019-02-19T19:08:38.787Z,2.65
2019-02-19T19:11:07.793Z,2.75
2019-02-19T19:13:36.645Z,2.37
2019-02-19T19:16:05.708Z,3.62
2019-02-19T19:18:34.632Z,3.47
2019-02-19T19:21:07.890Z,3.22
2019-02-19T19:23:34.350Z,2.90
2019-02-19T19:26:03.232Z,2.50
2019-02-19T19:28:32.124Z,2.72
2019-02-19T19:31:01.142Z,2.87
2019-02-19T19:33:30.110Z,3.12
2019-02-19T19:35:59.083Z,3.05
2019-02-19T19:38:33.541Z,2.72
2019-02-19T19:41:02.473Z,3.35
2019-02-19T19:43:31.322Z,3.47
2019-02-19T19:46:00.342Z,2.77
2019-02-19T19:48:29.186Z,3.17
2019-02-19T19:50:58.125Z,3.35
2019-02-19T19:53:27.066Z,3.62
2019-02-19T19:55:55.917Z,3.47
2019-02-19T19:58:24.923Z,3.40
2019-02-19T20:00:53.773Z,3.55
2019-02-19T20:03:22.913Z,4.33
2019-02-19T20:05:53.550Z,4.28
2019-02-19T20:08:22.543Z,3.00
2019-02-19T20:10:51.688Z,3.60
2019-02-19T20:13:20.619Z,3.72
2019-02-19T20:15:49.636Z,2.52
2019-02-19T20:18:18.643Z,3.52
2019-02-19T20:20:47.590Z,3.62
2019-02-19T20:23:16.696Z,3.87
2019-02-19T20:25:45.584Z,3.52
2019-02-19T20:28:14.514Z,3.65
2019-02-19T20:30:43.646Z,3.22
2019-02-19T20:33:12.586Z,2.80
2019-02-19T20:35:41.596Z,3.55
2019-02-19T20:38:10.510Z,3.47
2019-02-19T20:40:39.381Z,2.85
2019-02-19T20:43:08.296Z,3.30
2019-02-19T20:45:37.240Z,3.12
2019-02-19T20:48:06.262Z,3.27
2019-02-19T20:50:35.105Z,2.65
2019-02-19T20:53:04.127Z,4.40
2019-02-19T20:55:41.929Z,3.02
2019-02-19T20:58:10.942Z,3.87
2019-02-19T21:00:39.994Z,3.62
2019-02-19T21:03:09.026Z,3.87
2019-02-19T21:05:37.977Z,3.60
2019-02-19T21:08:06.909Z,3.27
2019-02-19T21:10:35.729Z,3.35
2019-02-19T21:13:04.755Z,2.95
2019-02-19T21:15:33.681Z,2.95
2019-02-19T21:18:02.550Z,2.83
2019-02-19T21:20:31.377Z,3.02
2019-02-19T21:23:00.288Z,2.90
2019-02-19T21:25:31.257Z,2.70
2019-02-19T21:27:59.932Z,3.90
2019-02-19T21:30:28.916Z,4.45
2019-02-19T21:32:57.863Z,2.47
2019-02-19T21:35:26.716Z,2.90
2019-02-19T21:37:55.548Z,3.45
2019-02-19T21:40:24.537Z,3.98
2019-02-19T21:42:53.375Z,3.50
2019-02-19T21:45:22.334Z,2.67
2019-02-19T21:47:51.208Z,3.10
2019-02-19T21:50:20.137Z,3.92
2019-02-19T21:52:49.061Z,3.72
2019-02-19T21:55:18.082Z,4.03
2019-02-19T21:57:46.981Z,4.05
2019-02-19T22:00:18.079Z,4.05
2019-02-19T22:02:46.899Z,3.47
2019-02-19T22:05:15.780Z,4.90
2019-02-19T22:07:44.717Z,3.55
2019-02-19T22:10:13.732Z,4.30
2019-02-19T22:12:42.655Z,3.27
2019-02-19T22:15:11.859Z,4.08
2019-02-19T22:17:41.658Z,4.28
2019-02-19T22:20:21.227Z,3.58
2019-02-19T22:22:50.169Z,3.75
2019-02-19T22:25:19.010Z,3.52
2019-02-19T22:27:47.852Z,3.60
2019-02-19T22:30:16.870Z,2.85
2019-02-19T22:32:45.805Z,3.87
2019-02-19T22:35:14.705Z,3.30
2019-02-19T22:37:43.614Z,3.70
2019-02-19T22:40:12.543Z,3.58
2019-02-19T22:42:41.524Z,3.58
2019-02-19T22:45:10.561Z,4.58
2019-02-19T22:47:39.468Z,3.70
2019-02-19T22:50:08.519Z,3.83
2019-02-19T22:52:37.439Z,4.00
2019-02-19T22:55:15.392Z,4.05
2019-02-19T22:57:44.336Z,3.70
2019-02-19T23:00:33.125Z,3.47
2019-02-19T23:03:02.212Z,3.95
2019-02-19T23:05:31.200Z,4.80
2019-02-19T23:08:00.021Z,4.15
2019-02-19T23:10:28.932Z,4.58
2019-02-19T23:12:57.784Z,3.65
2019-02-19T23:15:26.716Z,4.10
2019-02-19T23:17:55.535Z,5.22
2019-02-19T23:20:24.383Z,4.30
2019-02-19T23:22:53.304Z,4.50
2019-02-19T23:25:22.282Z,4.75
2019-02-19T23:27:51.269Z,4.67
2019-02-19T23:30:20.262Z,4.30
2019-02-19T23:32:49.206Z,4.17
2019-02-19T23:35:37.267Z,4.12
2019-02-19T23:38:06.208Z,5.05
2019-02-19T23:40:36.133Z,4.12
2019-02-19T23:43:05.112Z,4.65
2019-02-19T23:45:34.033Z,5.70
2019-02-19T23:48:02.936Z,4.05
2019-02-19T23:50:31.778Z,4.20
2019-02-19T23:53:00.678Z,4.62
2019-02-19T23:55:29.529Z,4.90
2019-02-19T23:57:58.364Z,4.22
